Time;durP1;ratioP1;P1;durP2;ratioP2;P2;SDS_P1;SDS_P2;PMS_P1;PMS_P2;Temp;Humidity;BMP_temperature;BMP_pressure;BME280_temperature;BME280_humidity;BME280_pressure;Samples;Min_cycle;Max_cycle;Signal;HPM_P1;HPM_P2
2022/05/13 00:04:11;;;;;;;11.63;4.40;;;;;;;13.30;67.06;99167.08;4471648;78;21363;-80
2022/05/13 00:10:13;;;;;;;17.42;4.60;;;;;;;13.46;66.91;99179.32;4465825;78;20997;-80
2022/05/13 00:16:15;;;;;;;8.70;3.40;;;;;;;13.51;67.01;99174.82;4501100;78;21024;-80
2022/05/13 00:22:18;;;;;;;9.45;4.50;;;;;;;13.36;66.92;99166.93;4467550;78;21022;-80
2022/05/13 00:28:20;;;;;;;12.28;4.53;;;;;;;13.23;67.00;99164.33;4474791;78;21011;-80
2022/05/13 00:34:21;;;;;;;7.58;3.95;;;;;;;13.04;67.47;99153.08;4468814;78;20965;-80
2022/05/13 00:40:23;;;;;;;6.65;3.50;;;;;;;12.76;67.86;99139.20;4472422;78;21030;-81
2022/05/13 00:46:28;;;;;;;7.83;4.03;;;;;;;12.57;68.01;99139.48;4426169;78;21071;-80
2022/05/13 00:52:29;;;;;;;8.25;3.55;;;;;;;12.55;68.73;99140.45;4432350;78;21355;-80
2022/05/13 00:58:34;;;;;;;12.45;4.25;;;;;;;12.63;69.54;99145.61;4423971;78;20971;-80
2022/05/13 01:04:38;;;;;;;13.98;4.25;;;;;;;12.58;69.79;99147.34;4436256;78;21089;-80
2022/05/13 01:10:43;;;;;;;10.82;4.10;;;;;;;12.65;70.06;99154.23;4426215;78;21030;-80
2022/05/13 01:23:12;;;;;;;12.58;3.75;;;;;;;12.54;70.28;99153.98;4434571;78;21583;-80
2022/05/13 01:29:14;;;;;;;14.28;4.65;;;;;;;12.37;70.69;99142.31;4432581;78;21034;-80
2022/05/13 01:35:15;;;;;;;11.85;4.92;;;;;;;12.13;70.52;99142.35;4431034;78;21025;-80
2022/05/13 01:41:18;;;;;;;13.35;6.40;;;;;;;11.90;71.44;99140.39;4451725;78;20979;-81
2022/05/13 01:47:19;;;;;;;17.65;5.28;;;;;;;11.90;71.80;99141.76;4477953;78;21006;-81
2022/05/13 01:53:20;;;;;;;11.53;5.28;;;;;;;11.90;72.13;99140.39;4474066;78;21082;-82
2022/05/13 01:59:21;;;;;;;9.85;4.40;;;;;;;11.81;72.30;99120.73;4485365;78;21018;-80
2022/05/13 02:05:24;;;;;;;9.83;5.47;;;;;;;11.76;72.82;99132.05;4480977;78;21040;-80
2022/05/13 02:11:29;;;;;;;10.60;5.05;;;;;;;11.59;72.95;99134.63;4480606;78;21025;-80
2022/05/13 02:17:31;;;;;;;13.05;4.80;;;;;;;11.49;73.14;99106.52;4479778;78;21536;-80
2022/05/13 02:23:33;;;;;;;8.95;4.72;;;;;;;11.47;73.95;99100.62;4473336;78;20916;-80
2022/05/13 02:29:34;;;;;;;10.00;4.53;;;;;;;11.57;74.05;99106.79;4472585;78;21003;-80
2022/05/13 02:35:35;;;;;;;8.45;4.50;;;;;;;11.83;74.66;99117.03;4270721;78;25731;-80
2022/05/13 02:41:36;;;;;;;10.88;4.53;;;;;;;12.01;74.54;99110.31;4263369;83;21039;-81
2022/05/13 02:47:39;;;;;;;8.75;4.17;;;;;;;11.96;74.23;99105.98;4241493;83;21015;-80
2022/05/13 14:35:33;;;;;;;8.03;1.92;;;;;;;26.46;38.98;98707.77;4658622;74;22821;-83
2022/05/13 14:41:49;;;;;;;5.67;1.70;;;;;;;25.99;38.86;98689.17;4390223;76;28610;-82
2022/05/13 14:47:52;;;;;;;6.17;1.52;;;;;;;25.87;38.65;98691.66;4198898;83;21032;-83
2022/05/13 14:54:02;;;;;;;5.90;1.67;;;;;;;25.49;37.53;98695.34;4198979;83;20978;-84
2022/05/13 15:00:23;;;;;;;3.67;1.50;;;;;;;25.05;37.66;98696.47;4251499;83;20990;-82
2022/05/13 15:07:41;;;;;;;4.83;1.82;;;;;;;24.78;38.69;98677.08;4579328;76;22607;-82
2022/05/13 15:13:44;;;;;;;4.33;1.67;;;;;;;24.49;39.25;98677.73;4516972;78;21066;-84
2022/05/13 15:19:45;;;;;;;6.55;2.52;;;;;;;24.37;40.38;98649.34;4558621;78;20994;-82
2022/05/13 15:25:48;;;;;;;12.28;2.27;;;;;;;24.42;40.36;98672.47;4494630;78;21645;-83
2022/05/13 15:31:49;;;;;;;4.40;2.05;;;;;;;24.27;40.72;98671.64;4507044;78;21011;-84
2022/05/13 15:37:51;;;;;;;6.40;2.02;;;;;;;23.96;41.37;98659.34;4511156;77;21042;-84
2022/05/13 15:43:52;;;;;;;5.33;2.30;;;;;;;23.63;42.25;98652.16;4516375;78;21041;-84
2022/05/13 15:56:20;;;;;;;6.50;2.45;;;;;;;23.24;43.05;98644.13;4504174;78;21018;-80
2022/05/13 16:02:21;;;;;;;13.53;2.55;;;;;;;23.07;43.94;98660.44;4497082;78;21386;-80
2022/05/13 16:08:27;;;;;;;3.52;2.22;;;;;;;22.90;44.54;98663.39;4499017;78;21042;-84
2022/05/13 16:14:29;;;;;;;5.65;2.02;;;;;;;22.82;44.80;98666.34;4510070;78;21014;-84
2022/05/13 16:20:30;;;;;;;8.40;2.47;;;;;;;22.63;45.12;98665.41;4510609;78;20948;-83
2022/05/13 16:26:34;;;;;;;5.45;2.15;;;;;;;22.47;45.74;98662.86;4482192;78;20956;-83
2022/05/13 16:32:36;;;;;;;5.87;2.12;;;;;;;22.55;47.55;98659.97;4502393;78;20939;-83
2022/05/13 16:38:38;;;;;;;5.08;1.95;;;;;;;22.46;47.78;98664.87;4493931;78;21046;-83
2022/05/13 16:44:39;;;;;;;4.15;2.40;;;;;;;22.41;48.08;98673.84;4498546;77;21022;-84
2022/05/13 16:50:43;;;;;;;4.92;2.35;;;;;;;22.34;48.46;98677.55;4498137;78;21029;-83
2022/05/13 16:56:45;;;;;;;7.50;2.33;;;;;;;22.19;49.25;98683.55;4496525;77;21407;-83
2022/05/13 17:02:47;;;;;;;3.30;2.17;;;;;;;22.16;50.34;98685.23;4507027;78;21026;-83
2022/05/13 17:21:30;;;;;;;6.25;2.27;;;;;;;21.57;50.73;98691.13;4505757;78;20960;-82
2022/05/13 17:27:49;;;;;;;8.50;2.87;;;;;;;21.30;51.29;98701.47;4512279;78;21025;-82
2022/05/13 17:33:51;;;;;;;6.65;2.50;;;;;;;21.11;51.38;98697.00;4375807;78;10000408;-82
2022/05/13 17:39:52;;;;;;;4.62;2.62;;;;;;;20.97;51.22;98707.88;4510439;78;20967;-84
2022/05/13 17:45:55;;;;;;;6.58;2.62;;;;;;;20.85;51.26;98717.77;4506080;78;20960;-83
2022/05/13 17:51:58;;;;;;;6.97;2.77;;;;;;;20.72;52.16;98753.81;4516173;78;21003;-84
2022/05/13 17:58:01;;;;;;;9.55;2.17;;;;;;;20.56;51.58;98763.08;4527932;78;21503;-83
2022/05/13 18:04:04;;;;;;;7.03;1.90;;;;;;;20.25;51.33;98774.58;4502791;78;20993;-83
2022/05/13 18:10:07;;;;;;;9.05;2.20;;;;;;;20.01;51.31;98784.44;4421164;78;21033;-84
2022/05/13 18:16:09;;;;;;;4.65;1.60;;;;;;;19.82;51.41;98793.13;4404695;78;21005;-83
2022/05/13 18:22:12;;;;;;;7.00;2.62;;;;;;;19.74;51.73;98811.81;4413459;78;21030;-83
2022/05/13 18:28:14;;;;;;;5.78;2.15;;;;;;;19.64;52.14;98812.89;4407780;78;20958;-83
2022/05/13 18:34:15;;;;;;;7.20;2.22;;;;;;;19.51;52.43;98828.73;4407144;78;21028;-83
2022/05/13 18:46:41;;;;;;;9.73;2.60;;;;;;;19.09;53.15;98858.34;4424546;78;20971;-83
2022/05/13 18:52:42;;;;;;;5.07;2.07;;;;;;;18.89;53.57;98869.38;4419819;78;21053;-84
2022/05/13 18:58:44;;;;;;;5.37;2.12;;;;;;;18.66;53.87;98884.95;4417339;78;21046;-83
2022/05/13 19:04:46;;;;;;;6.03;2.33;;;;;;;18.53;54.36;98892.38;4448288;78;20967;-83
2022/05/13 19:10:48;;;;;;;5.55;2.60;;;;;;;18.41;55.03;98907.50;4531773;78;20983;-82
2022/05/13 19:16:49;;;;;;;4.47;2.75;;;;;;;18.29;55.55;98914.44;4515021;78;20952;-82
2022/05/13 19:22:50;;;;;;;7.22;3.12;;;;;;;18.23;56.06;98921.69;4523081;78;21007;-83
2022/05/13 19:28:52;;;;;;;4.87;2.62;;;;;;;18.15;56.72;98927.83;4518923;78;21952;-83
2022/05/13 19:34:53;;;;;;;7.03;2.62;;;;;;;17.94;56.90;98936.54;4513733;77;22005;-83
2022/05/13 19:40:55;;;;;;;10.48;3.67;;;;;;;17.81;57.81;98938.36;4493119;78;21030;-82
2022/05/13 19:46:57;;;;;;;5.83;3.30;;;;;;;17.62;58.13;98951.59;4494652;77;21467;-82
2022/05/13 19:52:58;;;;;;;7.58;3.45;;;;;;;17.38;58.24;98955.53;4500321;78;21594;-82
2022/05/13 19:59:00;;;;;;;7.70;3.67;;;;;;;17.25;58.69;98958.11;4499299;78;21009;-82
2022/05/13 20:11:22;;;;;;;13.95;3.72;;;;;;;17.28;59.89;98975.25;4489617;78;21045;-81
2022/05/13 20:17:23;;;;;;;12.50;4.08;;;;;;;17.19;60.45;98986.06;4482595;78;21049;-82
2022/05/13 20:23:25;;;;;;;9.18;3.83;;;;;;;17.24;60.72;98994.66;4489567;78;21480;-82
2022/05/13 20:29:27;;;;;;;11.08;5.10;;;;;;;17.15;61.06;99005.48;4491158;78;21026;-81
2022/05/13 20:35:28;;;;;;;11.48;3.83;;;;;;;17.04;61.04;99017.30;4490730;78;21053;-82
2022/05/13 20:41:30;;;;;;;10.08;3.87;;;;;;;17.05;60.85;99024.38;4492986;78;21118;-82
2022/05/13 20:47:31;;;;;;;9.05;3.90;;;;;;;17.10;60.66;99036.37;4478819;77;21594;-81
2022/05/13 20:53:32;;;;;;;10.45;3.37;;;;;;;17.15;60.42;99041.44;4491858;78;21101;-83
2022/05/13 20:59:34;;;;;;;9.28;3.33;;;;;;;17.18;60.66;99043.36;4482328;78;21041;-82
2022/05/13 21:05:39;;;;;;;9.15;4.25;;;;;;;17.17;61.63;99061.17;4498754;78;21006;-81
2022/05/13 21:11:40;;;;;;;8.55;3.98;;;;;;;17.12;61.39;99070.52;4514929;78;21013;-82
2022/05/13 21:17:41;;;;;;;13.60;4.08;;;;;;;17.09;61.06;99096.25;4509212;78;21030;-81
2022/05/13 21:23:43;;;;;;;9.30;3.83;;;;;;;17.16;60.64;99103.08;4509873;78;21053;-82
2022/05/13 21:29:45;;;;;;;12.20;3.75;;;;;;;17.13;60.32;99103.30;4509366;78;20946;-82
2022/05/13 21:42:06;;;;;;;10.03;4.37;;;;;;;16.94;60.33;99138.50;4511024;78;21070;-82
2022/05/13 21:48:10;;;;;;;9.50;4.20;;;;;;;16.88;60.14;99151.22;4502959;78;21557;-82
2022/05/13 21:54:12;;;;;;;7.35;4.28;;;;;;;16.83;60.20;99159.20;4498157;78;20989;-83
2022/05/13 22:00:41;;;;;;;10.93;5.22;;;;;;;16.69;59.95;99179.50;4506795;78;21696;-83
2022/05/13 22:06:42;;;;;;;8.03;4.55;;;;;;;16.56;60.08;99195.02;4490243;78;21003;-81
2022/05/13 22:12:44;;;;;;;7.55;3.75;;;;;;;16.43;60.10;99207.73;4525616;78;21038;-82
2022/05/13 22:18:45;;;;;;;6.92;4.03;;;;;;;16.30;60.57;99216.94;4516457;78;21101;-82
2022/05/13 22:24:46;;;;;;;5.55;3.72;;;;;;;16.19;60.27;99223.14;4519004;78;20943;-82
2022/05/13 22:30:47;;;;;;;8.58;5.03;;;;;;;16.16;60.85;99225.34;4515650;77;21301;-84
2022/05/13 22:36:49;;;;;;;10.98;3.77;;;;;;;16.06;60.56;99242.76;4524859;78;21495;-82
2022/05/13 22:42:50;;;;;;;5.20;3.60;;;;;;;16.01;61.06;99239.84;4510841;78;21460;-83
2022/05/13 22:48:51;;;;;;;7.62;3.80;;;;;;;16.01;61.28;99243.98;4525279;78;20948;-82
2022/05/13 22:54:53;;;;;;;7.90;3.30;;;;;;;16.00;61.49;99247.14;4529496;78;21125;-82
2022/05/13 23:00:55;;;;;;;7.05;3.95;;;;;;;15.92;61.38;99248.38;4513789;78;21939;-82
2022/05/13 23:13:17;;;;;;;5.35;3.00;;;;;;;15.78;61.15;99263.06;4526041;78;21017;-82
2022/05/13 23:19:19;;;;;;;8.25;5.05;;;;;;;15.76;61.41;99259.91;4524351;78;21018;-82
2022/05/13 23:25:21;;;;;;;6.25;3.37;;;;;;;15.74;61.47;99270.55;4526533;78;21034;-82
2022/05/13 23:31:22;;;;;;;6.83;3.45;;;;;;;15.65;61.05;99275.73;4520364;78;21829;-82
2022/05/13 23:37:23;;;;;;;6.62;3.25;;;;;;;15.64;61.63;99260.38;4523638;78;21491;-82
2022/05/13 23:43:26;;;;;;;7.33;3.72;;;;;;;15.57;61.82;99264.53;4525140;78;21814;-81
2022/05/13 23:49:27;;;;;;;9.45;4.00;;;;;;;15.51;61.60;99255.10;4530115;78;21482;-81
